Pretty Universe — V7ZV3 — position and weather

sailwx.info

Track history (hours):
 
Tides and Currents Weather Stations Pressure Air Temp Water Temp Dewpoint Dewpoint Depression Visibility Wind Speed Wind Dir Waves Ship Positions

Pretty Universe

Last reported at 2017-Dec-31 20:59 UTC. Time now 2018-Feb-25 00:17 UTC.
Position S 24°52' W 046°18'.
Warning: this ship's position is 55 days out of date.

Length 180 m; draft 6.5 m.

Type: Cargo ship. MMSI: 538004922.

Date/timePositionNaut miles runAvg speedWind from/ knotsBaromVisibWave heightAir tempDewpointWater temp
2017-Dec-31 20:59S 24°52' W 046°18'1912.9
2017-Dec-31 19:32S 24°33' W 046°20'013.1
2017-Dec-31 19:30S 24°33' W 046°20'612.9
2017-Dec-31 19:00S 24°27' W 046°21'613.0
2017-Dec-31 18:30S 24°20' W 046°22'612.9
2017-Dec-31 18:00S 24°14' W 046°22'612.7
2017-Dec-31 17:30S 24°07' W 046°22'611.4
2017-Dec-31 17:00S 24°02' W 046°21'4 7.6
2017-Dec-31 16:30S 23°59' W 046°18'1 0.0
2017-Dec-29 14:16S 23°58' W 046°17'0 0.0
2017-Dec-29 13:52S 23°58' W 046°17'0 0.0
2017-Dec-29 12:40S 23°58' W 046°17'0 0.0
2017-Dec-29 11:31S 23°58' W 046°17'0 0.1
2017-Dec-29 11:25S 23°58' W 046°17'0 0.0
2017-Dec-28 20:34S 23°58' W 046°17'0 0.0
2017-Dec-28 20:28S 23°58' W 046°17'0 0.0
2017-Dec-28 19:52S 23°58' W 046°17'0 0.0
2017-Dec-28 18:49S 23°58' W 046°17'0 0.0
2017-Dec-28 18:28S 23°58' W 046°17'0 0.0
2017-Dec-28 17:58S 23°58' W 046°17'0 0.0
2017-Dec-28 15:09S 23°58' W 046°17'0 0.0
2017-Dec-28 14:48S 23°58' W 046°17'0 0.0
2017-Dec-28 14:21S 23°58' W 046°17'0 0.0
2017-Dec-28 09:36S 23°58' W 046°17'0 0.0
2017-Dec-28 09:27S 23°58' W 046°17'0 0.0
2017-Dec-28 08:57S 23°58' W 046°17'0 0.0
2017-Dec-28 08:30S 23°58' W 046°17'0 0.0
2017-Dec-28 07:48S 23°58' W 046°17'0 0.0
2017-Dec-28 07:06S 23°58' W 046°17'0 0.0
2017-Dec-28 06:48S 23°58' W 046°17'0 0.0
2017-Dec-28 06:30S 23°58' W 046°17'0 0.0
2017-Dec-28 02:38S 23°58' W 046°17'0 2.4
2017-Dec-28 02:28S 23°59' W 046°17'3 7.0
2017-Dec-28 02:01S 24°00' W 046°20'2 3.8
2017-Dec-28 01:30S 24°02' W 046°20'2 3.3
2017-Dec-28 01:01S 24°03' W 046°19'3 6.3
2017-Dec-28 00:31S 24°06' W 046°16'4 7.4
2017-Dec-28 00:00S 24°08' W 046°14'0 0.6
2017-Dec-27 23:28S 24°08' W 046°13'0 0.0
2017-Dec-27 22:58S 24°08' W 046°13'0 0.0
2017-Dec-27 22:25S 24°08' W 046°13'0 0.0
2017-Dec-27 21:58S 24°08' W 046°13'0 0.0
2017-Dec-27 21:26S 24°08' W 046°13'0 0.0
2017-Dec-27 20:55S 24°08' W 046°13'0 0.0
2017-Dec-27 20:22S 24°08' W 046°13'0 0.0
2017-Dec-27 19:55S 24°08' W 046°13'0 0.0
2017-Dec-27 19:28S 24°08' W 046°13'0 0.0
2017-Dec-27 18:46S 24°08' W 046°13'0 0.0
2017-Dec-27 18:28S 24°08' W 046°13'0 0.0
2017-Dec-27 17:37S 24°08' W 046°13'0 0.0
2017-Dec-27 17:19S 24°08' W 046°13'0 0.0
2017-Dec-27 16:52S 24°08' W 046°13'0 0.0
2017-Dec-27 16:25S 24°08' W 046°13'0 0.0
2017-Dec-27 15:55S 24°08' W 046°13'0 0.0
2017-Dec-27 15:25S 24°08' W 046°13'0 0.0
2017-Dec-27 14:58S 24°08' W 046°13'0 0.0
2017-Dec-27 14:25S 24°08' W 046°13'0 0.0
2017-Dec-27 13:55S 24°08' W 046°13'0 0.0
2017-Dec-27 13:16S 24°08' W 046°13'0 0.0
2017-Dec-27 12:58S 24°08' W 046°13'0 0.0
2017-Dec-27 12:28S 24°08' W 046°13'0 0.0
2017-Dec-27 11:58S 24°08' W 046°13'0 0.0
2017-Dec-27 11:28S 24°08' W 046°13'0 0.0
2017-Dec-27 10:58S 24°08' W 046°13'0 0.0
2017-Dec-27 10:28S 24°08' W 046°13'0 0.0
2017-Dec-27 09:55S 24°08' W 046°13'0 0.0
2017-Dec-27 09:28S 24°08' W 046°13'0 0.0
2017-Dec-27 08:58S 24°08' W 046°13'0 0.0
2017-Dec-27 08:28S 24°08' W 046°13'0 0.0
2017-Dec-27 07:58S 24°08' W 046°13'0 0.0
2017-Dec-27 07:28S 24°08' W 046°13'0 0.0
2017-Dec-27 06:58S 24°08' W 046°13'0 0.0
2017-Dec-27 06:28S 24°08' W 046°13'0 0.0
2017-Dec-27 05:55S 24°08' W 046°13'0 0.0
2017-Dec-27 05:28S 24°08' W 046°13'0 0.0
2017-Dec-27 04:58S 24°08' W 046°13'0 0.0
2017-Dec-27 04:28S 24°08' W 046°13'0 0.0
2017-Dec-27 03:58S 24°08' W 046°13'0 0.0
2017-Dec-27 03:25S 24°08' W 046°13'0 0.0
2017-Dec-27 02:58S 24°08' W 046°13'0 0.0
2017-Dec-27 02:28S 24°08' W 046°13'0 0.0
2017-Dec-27 01:58S 24°08' W 046°13'0 0.0
2017-Dec-27 01:28S 24°08' W 046°13'0 0.0
2017-Dec-27 00:58S 24°08' W 046°13'0 0.0
2017-Dec-27 00:28S 24°08' W 046°13'0 0.0
2017-Dec-26 23:58S 24°08' W 046°13'0 0.0
2017-Dec-26 23:28S 24°08' W 046°13'0 0.0
2017-Dec-26 22:58S 24°08' W 046°13'0 0.0
2017-Dec-26 22:28S 24°08' W 046°13'0 0.0
2017-Dec-26 21:58S 24°08' W 046°13'0 0.0
2017-Dec-26 21:28S 24°08' W 046°13'0 0.0
2017-Dec-26 20:52S 24°08' W 046°13'0 0.0
2017-Dec-26 20:28S 24°08' W 046°13'0 0.0
2017-Dec-26 19:58S 24°08' W 046°13'0 0.0
2017-Dec-26 19:28S 24°08' W 046°13'0 0.0
2017-Dec-26 18:58S 24°08' W 046°13'0 0.0
2017-Dec-26 18:28S 24°08' W 046°13'0 0.0
2017-Dec-26 17:58S 24°08' W 046°13'0 0.0
2017-Dec-26 17:28S 24°08' W 046°13'0 0.0
2017-Dec-26 16:58S 24°08' W 046°13'0 0.0
2017-Dec-26 16:28S 24°08' W 046°13'0 0.0
2017-Dec-26 15:58S 24°08' W 046°13'0 0.0
2017-Dec-26 15:28S 24°08' W 046°13'0 0.0
2017-Dec-26 14:58S 24°08' W 046°13'0 0.0
2017-Dec-26 14:28S 24°08' W 046°13'0 0.0
2017-Dec-26 13:58S 24°08' W 046°13'0 0.0
2017-Dec-26 13:28S 24°08' W 046°13'0 0.1
2017-Dec-26 12:58S 24°08' W 046°13'0 0.0
2017-Dec-26 12:28S 24°08' W 046°13'0 0.0
2017-Dec-26 11:58S 24°08' W 046°13'0 0.0
2017-Dec-26 11:28S 24°08' W 046°13'0 0.0
2017-Dec-26 10:55S 24°08' W 046°13'0 0.0
2017-Dec-26 10:28S 24°08' W 046°13'0 0.0
2017-Dec-26 09:58S 24°08' W 046°13'0 0.0
2017-Dec-26 09:28S 24°08' W 046°13'0 0.0
2017-Dec-26 08:58S 24°08' W 046°13'0 0.0
2017-Dec-26 08:28S 24°08' W 046°13'0 0.0
2017-Dec-26 07:58S 24°08' W 046°13'0 0.0
2017-Dec-26 07:28S 24°08' W 046°13'0 0.0
2017-Dec-26 06:58S 24°08' W 046°13'0 0.0
2017-Dec-26 06:28S 24°08' W 046°13'0 0.0
2017-Dec-26 05:58S 24°08' W 046°13'0 0.0
2017-Dec-26 05:28S 24°08' W 046°13'0 0.0
2017-Dec-26 04:58S 24°08' W 046°13'0 0.0
2017-Dec-26 04:28S 24°08' W 046°13'0 0.0
2017-Dec-26 03:58S 24°08' W 046°13'0 0.0
2017-Dec-26 03:28S 24°08' W 046°13'0 0.0
2017-Dec-26 02:58S 24°08' W 046°13'0 0.0
2017-Dec-26 02:28S 24°08' W 046°13'0 0.1
2017-Dec-26 01:55S 24°08' W 046°13'0 0.0
2017-Dec-26 01:28S 24°08' W 046°13'0 0.0
2017-Dec-26 00:58S 24°08' W 046°13'0 0.0
2017-Dec-26 00:28S 24°08' W 046°13'0 0.1
2017-Dec-25 23:58S 24°08' W 046°13'0 0.0
2017-Dec-25 23:28S 24°08' W 046°13'0 0.0
2017-Dec-25 22:58S 24°08' W 046°13'0 0.0
2017-Dec-25 22:28S 24°08' W 046°13'0 0.0
2017-Dec-25 21:58S 24°08' W 046°13'0 0.0
2017-Dec-25 21:28S 24°08' W 046°13'0 0.0
2017-Dec-25 20:55S 24°08' W 046°13'0 0.0
2017-Dec-25 20:28S 24°08' W 046°13'0 0.0
2017-Dec-25 19:52S 24°08' W 046°13'0 0.1
2017-Dec-25 19:28S 24°08' W 046°13'0 0.0
2017-Dec-25 18:58S 24°08' W 046°13'0 0.0
2017-Dec-25 18:28S 24°08' W 046°13'0 0.0
2017-Dec-25 17:43S 24°08' W 046°13'0 0.0
2017-Dec-25 17:28S 24°08' W 046°13'0 0.0
2017-Dec-25 16:58S 24°08' W 046°13'0 0.0
2017-Dec-25 16:28S 24°08' W 046°13'0 0.0
2017-Dec-25 15:58S 24°08' W 046°13'0 0.0
2017-Dec-25 15:28S 24°08' W 046°13'0 0.0
2017-Dec-25 14:58S 24°08' W 046°13'0 0.0
2017-Dec-25 14:28S 24°08' W 046°13'0 0.0
2017-Dec-25 13:58S 24°08' W 046°13'0 0.0
2017-Dec-25 13:28S 24°08' W 046°13'0 0.0
2017-Dec-25 12:55S 24°08' W 046°13'0 0.0
2017-Dec-25 12:25S 24°08' W 046°13'0 0.0
2017-Dec-25 11:58S 24°08' W 046°13'0 0.0
2017-Dec-25 11:28S 24°08' W 046°13'0 0.0
2017-Dec-25 10:58S 24°08' W 046°13'0 0.0
2017-Dec-25 10:28S 24°08' W 046°13'0 0.0
2017-Dec-25 09:55S 24°08' W 046°13'0 0.0
2017-Dec-25 09:28S 24°08' W 046°13'0 0.0
2017-Dec-25 08:58S 24°08' W 046°13'0 0.0
2017-Dec-25 08:22S 24°08' W 046°13'0 0.0
2017-Dec-25 07:58S 24°08' W 046°13'0 0.1
2017-Dec-25 07:28S 24°08' W 046°13'0 0.1
2017-Dec-25 06:58S 24°08' W 046°13'0 0.0
2017-Dec-25 06:28S 24°08' W 046°13'0 0.0
2017-Dec-25 05:58S 24°08' W 046°13'0 0.2
2017-Dec-25 05:28S 24°08' W 046°13'0 0.2
2017-Dec-25 04:43S 24°08' W 046°13'0 0.0
2017-Dec-25 04:16S 24°08' W 046°13'0 0.1
2017-Dec-25 03:58S 24°08' W 046°13'0 0.1
2017-Dec-25 03:22S 24°08' W 046°13'0 0.0
2017-Dec-25 02:58S 24°08' W 046°13'0 0.1
2017-Dec-25 02:28S 24°08' W 046°13'0 0.0
2017-Dec-25 01:40S 24°08' W 046°13'0 0.0
2017-Dec-25 00:31S 24°08' W 046°13'0 0.0
2017-Dec-25 00:28S 24°08' W 046°13'0 0.0
2017-Dec-24 23:58S 24°08' W 046°13'0 0.0
2017-Dec-24 23:22S 24°08' W 046°13'0 0.0
2017-Dec-24 22:58S 24°08' W 046°13'0 0.0
2017-Dec-24 22:28S 24°08' W 046°13'0 0.0
2017-Dec-24 21:58S 24°08' W 046°13'0 0.0
2017-Dec-24 21:22S 24°08' W 046°13'0 0.1
2017-Dec-24 20:58S 24°08' W 046°13'0 0.1
2017-Dec-24 20:28S 24°08' W 046°13'0 0.0
2017-Dec-24 19:58S 24°08' W 046°13'0 0.0
2017-Dec-24 19:28S 24°08' W 046°13'0 0.0
2017-Dec-24 18:58S 24°08' W 046°13'0 0.0
2017-Dec-24 18:25S 24°08' W 046°13'0 0.1
2017-Dec-24 17:58S 24°08' W 046°13'0 0.0
2017-Dec-24 17:25S 24°08' W 046°13'0 0.1
2017-Dec-24 16:55S 24°08' W 046°13'0 0.0
2017-Dec-24 16:28S 24°08' W 046°13'0 0.0
2017-Dec-24 15:43S 24°08' W 046°13'0 0.1
2017-Dec-24 15:28S 24°08' W 046°13'0 0.0
2017-Dec-24 14:52S 24°08' W 046°13'0 0.0
2017-Dec-24 14:25S 24°08' W 046°13'0 0.0
2017-Dec-24 13:40S 24°08' W 046°13'0 0.1
2017-Dec-24 13:25S 24°08' W 046°13'0 0.0
2017-Dec-24 12:58S 24°08' W 046°13'0 0.0
2017-Dec-24 12:22S 24°08' W 046°13'0 0.0
2017-Dec-24 11:58S 24°08' W 046°13'0 0.0
2017-Dec-24 11:28S 24°08' W 046°13'0 0.0
2017-Dec-24 10:55S 24°08' W 046°13'0 0.1
2017-Dec-24 10:28S 24°08' W 046°13'0 0.0
2017-Dec-24 09:58S 24°08' W 046°13'0 0.0
2017-Dec-24 06:55S 24°08' W 046°13'0 0.0
2017-Dec-24 06:28S 24°08' W 046°13'0 0.0
2017-Dec-24 05:04S 24°08' W 046°13'0 0.0
2017-Dec-24 04:46S 24°08' W 046°13'0 0.0
2017-Dec-24 04:28S 24°08' W 046°13'0 0.0
2017-Dec-24 03:52S 24°08' W 046°13'0 0.0
2017-Dec-24 03:28S 24°08' W 046°13'0 0.0
2017-Dec-24 02:46S 24°08' W 046°13'0 0.0
2017-Dec-24 02:22S 24°08' W 046°13'0 0.1
2017-Dec-24 01:58S 24°08' W 046°13'0 0.0
2017-Dec-24 01:28S 24°08' W 046°13'0 0.0
2017-Dec-24 00:58S 24°08' W 046°13'0 0.0
2017-Dec-24 00:28S 24°08' W 046°13'0 0.0
2017-Dec-23 23:58S 24°08' W 046°13'0 0.1
2017-Dec-23 23:28S 24°08' W 046°13'0 0.1
2017-Dec-23 22:58S 24°08' W 046°13'0 0.0
2017-Dec-23 22:28S 24°08' W 046°13'0 0.1
2017-Dec-23 21:58S 24°08' W 046°13'0 0.0
2017-Dec-23 21:25S 24°08' W 046°13'0 0.0
2017-Dec-23 20:58S 24°08' W 046°13'0 0.0
2017-Dec-23 20:28S 24°08' W 046°13'0 0.0
2017-Dec-23 19:58S 24°08' W 046°13'0 0.0
2017-Dec-23 19:28S 24°08' W 046°13'0 0.0
2017-Dec-23 18:58S 24°08' W 046°13'0 0.0
2017-Dec-23 18:28S 24°08' W 046°13'0 0.0
2017-Dec-23 17:58S 24°08' W 046°13'0 0.0
2017-Dec-23 17:28S 24°08' W 046°13'0 0.0
2017-Dec-23 16:58S 24°08' W 046°13'0 0.0
2017-Dec-23 15:16S 24°08' W 046°13'0 0.0
2017-Dec-23 14:55S 24°08' W 046°13'0 0.0
2017-Dec-23 14:16S 24°08' W 046°13'0 0.0
2017-Dec-23 13:58S 24°08' W 046°13'0 0.0
2017-Dec-23 13:16S 24°08' W 046°13'0 0.0
2017-Dec-23 12:52S 24°08' W 046°13'0 0.0
2017-Dec-23 12:28S 24°08' W 046°13'0 0.0
2017-Dec-23 11:55S 24°08' W 046°13'0 0.0
2017-Dec-23 11:22S 24°08' W 046°13'0 0.0
2017-Dec-23 10:58S 24°08' W 046°13'0 0.0
2017-Dec-23 10:28S 24°08' W 046°13'0 0.0
2017-Dec-23 09:58S 24°08' W 046°13'0 0.0
2017-Dec-23 09:22S 24°08' W 046°13'0 0.0
2017-Dec-23 08:46S 24°08' W 046°13'0 0.0
2017-Dec-23 08:16S 24°08' W 046°13'0 0.0
2017-Dec-23 07:10S 24°08' W 046°13'0 0.0
2017-Dec-23 06:58S 24°08' W 046°13'0 0.0
2017-Dec-23 06:22S 24°08' W 046°13'0 0.0
2017-Dec-23 05:58S 24°08' W 046°13'0 0.0
2017-Dec-23 05:22S 24°08' W 046°13'0 0.0
2017-Dec-23 04:58S 24°08' W 046°13'0 0.0
2017-Dec-23 04:22S 24°08' W 046°13'0 0.0
2017-Dec-23 03:58S 24°08' W 046°13'0 0.0
2017-Dec-23 03:22S 24°08' W 046°13'0 0.0
2017-Dec-23 02:52S 24°08' W 046°13'0 0.0
2017-Dec-23 02:28S 24°08' W 046°13'0 0.0
2017-Dec-23 01:58S 24°08' W 046°13'0 0.0
2017-Dec-23 01:28S 24°08' W 046°13'0 0.0
2017-Dec-23 00:58S 24°08' W 046°13'0 0.0
2017-Dec-23 00:25S 24°08' W 046°13'0 0.0
2017-Dec-22 23:58S 24°08' W 046°13'0 0.0
2017-Dec-22 23:25S 24°08' W 046°13'0 0.0
2017-Dec-22 22:58S 24°08' W 046°13'0 0.0
2017-Dec-22 22:19S 24°08' W 046°13'0 0.0
2017-Dec-22 21:58S 24°08' W 046°13'0 0.0
2017-Dec-22 20:52S 24°08' W 046°13'0 0.0
2017-Dec-22 20:22S 24°08' W 046°13'0 0.0
2017-Dec-22 19:34S 24°08' W 046°13'0 0.0
2017-Dec-22 19:22S 24°08' W 046°13'0 0.0
2017-Dec-22 18:58S 24°08' W 046°13'0 0.0
2017-Dec-22 18:28S 24°08' W 046°13'0 0.0
2017-Dec-22 17:28S 24°08' W 046°13'0 0.0
2017-Dec-22 16:58S 24°08' W 046°13'0 0.0
2017-Dec-22 16:25S 24°08' W 046°13'0 0.0
2017-Dec-22 15:58S 24°08' W 046°13'0 0.0
2017-Dec-22 15:28S 24°08' W 046°13'0 0.0
2017-Dec-22 14:46S 24°08' W 046°13'0 0.0
2017-Dec-22 13:16S 24°08' W 046°13'0 0.0
2017-Dec-22 12:46S 24°08' W 046°13'0 0.0
2017-Dec-22 11:46S 24°08' W 046°13'0 0.0
2017-Dec-22 04:10S 24°08' W 046°13'0 0.0
2017-Dec-22 03:58S 24°08' W 046°13'0 0.0
2017-Dec-22 03:10S 24°08' W 046°13'0 0.0
2017-Dec-22 02:58S 24°08' W 046°13'  
Track history (hours):
 
Tides and Currents Weather Stations Pressure Air Temp Water Temp Dewpoint Dewpoint Depression Visibility Wind Speed Wind Dir Waves Ship Positions

Pretty Universe

Last reported at 2017-Dec-31 20:59 UTC. Time now 2018-Feb-25 00:17 UTC.
Position S 24°52' W 046°18'.
Warning: this ship's position is 55 days out of date.

Length 180 m; draft 6.5 m.

Type: Cargo ship. MMSI: 538004922.

Date/timePositionNaut miles runAvg speedWind from/ knotsBaromVisibWave heightAir tempDewpointWater temp
2017-Dec-31 20:59S 24°52' W 046°18'1912.9
2017-Dec-31 19:32S 24°33' W 046°20'013.1
2017-Dec-31 19:30S 24°33' W 046°20'612.9
2017-Dec-31 19:00S 24°27' W 046°21'613.0
2017-Dec-31 18:30S 24°20' W 046°22'612.9
2017-Dec-31 18:00S 24°14' W 046°22'612.7
2017-Dec-31 17:30S 24°07' W 046°22'611.4
2017-Dec-31 17:00S 24°02' W 046°21'4 7.6
2017-Dec-31 16:30S 23°59' W 046°18'1 0.0
2017-Dec-29 14:16S 23°58' W 046°17'0 0.0
2017-Dec-29 13:52S 23°58' W 046°17'0 0.0
2017-Dec-29 12:40S 23°58' W 046°17'0 0.0
2017-Dec-29 11:31S 23°58' W 046°17'0 0.1
2017-Dec-29 11:25S 23°58' W 046°17'0 0.0
2017-Dec-28 20:34S 23°58' W 046°17'0 0.0
2017-Dec-28 20:28S 23°58' W 046°17'0 0.0
2017-Dec-28 19:52S 23°58' W 046°17'0 0.0
2017-Dec-28 18:49S 23°58' W 046°17'0 0.0
2017-Dec-28 18:28S 23°58' W 046°17'0 0.0
2017-Dec-28 17:58S 23°58' W 046°17'0 0.0
2017-Dec-28 15:09S 23°58' W 046°17'0 0.0
2017-Dec-28 14:48S 23°58' W 046°17'0 0.0
2017-Dec-28 14:21S 23°58' W 046°17'0 0.0
2017-Dec-28 09:36S 23°58' W 046°17'0 0.0
2017-Dec-28 09:27S 23°58' W 046°17'0 0.0
2017-Dec-28 08:57S 23°58' W 046°17'0 0.0
2017-Dec-28 08:30S 23°58' W 046°17'0 0.0
2017-Dec-28 07:48S 23°58' W 046°17'0 0.0
2017-Dec-28 07:06S 23°58' W 046°17'0 0.0
2017-Dec-28 06:48S 23°58' W 046°17'0 0.0
2017-Dec-28 06:30S 23°58' W 046°17'0 0.0
2017-Dec-28 02:38S 23°58' W 046°17'0 2.4
2017-Dec-28 02:28S 23°59' W 046°17'3 7.0
2017-Dec-28 02:01S 24°00' W 046°20'2 3.8
2017-Dec-28 01:30S 24°02' W 046°20'2 3.3
2017-Dec-28 01:01S 24°03' W 046°19'3 6.3
2017-Dec-28 00:31S 24°06' W 046°16'4 7.4
2017-Dec-28 00:00S 24°08' W 046°14'0 0.6
2017-Dec-27 23:28S 24°08' W 046°13'0 0.0
2017-Dec-27 22:58S 24°08' W 046°13'0 0.0
2017-Dec-27 22:25S 24°08' W 046°13'0 0.0
2017-Dec-27 21:58S 24°08' W 046°13'0 0.0
2017-Dec-27 21:26S 24°08' W 046°13'0 0.0
2017-Dec-27 20:55S 24°08' W 046°13'0 0.0
2017-Dec-27 20:22S 24°08' W 046°13'0 0.0
2017-Dec-27 19:55S 24°08' W 046°13'0 0.0
2017-Dec-27 19:28S 24°08' W 046°13'0 0.0
2017-Dec-27 18:46S 24°08' W 046°13'0 0.0
2017-Dec-27 18:28S 24°08' W 046°13'0 0.0
2017-Dec-27 17:37S 24°08' W 046°13'0 0.0
2017-Dec-27 17:19S 24°08' W 046°13'0 0.0
2017-Dec-27 16:52S 24°08' W 046°13'0 0.0
2017-Dec-27 16:25S 24°08' W 046°13'0 0.0
2017-Dec-27 15:55S 24°08' W 046°13'0 0.0
2017-Dec-27 15:25S 24°08' W 046°13'0 0.0
2017-Dec-27 14:58S 24°08' W 046°13'0 0.0
2017-Dec-27 14:25S 24°08' W 046°13'0 0.0
2017-Dec-27 13:55S 24°08' W 046°13'0 0.0
2017-Dec-27 13:16S 24°08' W 046°13'0 0.0
2017-Dec-27 12:58S 24°08' W 046°13'0 0.0
2017-Dec-27 12:28S 24°08' W 046°13'0 0.0
2017-Dec-27 11:58S 24°08' W 046°13'0 0.0
2017-Dec-27 11:28S 24°08' W 046°13'0 0.0
2017-Dec-27 10:58S 24°08' W 046°13'0 0.0
2017-Dec-27 10:28S 24°08' W 046°13'0 0.0
2017-Dec-27 09:55S 24°08' W 046°13'0 0.0
2017-Dec-27 09:28S 24°08' W 046°13'0 0.0
2017-Dec-27 08:58S 24°08' W 046°13'0 0.0
2017-Dec-27 08:28S 24°08' W 046°13'0 0.0
2017-Dec-27 07:58S 24°08' W 046°13'0 0.0
2017-Dec-27 07:28S 24°08' W 046°13'0 0.0
2017-Dec-27 06:58S 24°08' W 046°13'0 0.0
2017-Dec-27 06:28S 24°08' W 046°13'0 0.0
2017-Dec-27 05:55S 24°08' W 046°13'0 0.0
2017-Dec-27 05:28S 24°08' W 046°13'0 0.0
2017-Dec-27 04:58S 24°08' W 046°13'0 0.0
2017-Dec-27 04:28S 24°08' W 046°13'0 0.0
2017-Dec-27 03:58S 24°08' W 046°13'0 0.0
2017-Dec-27 03:25S 24°08' W 046°13'0 0.0
2017-Dec-27 02:58S 24°08' W 046°13'0 0.0
2017-Dec-27 02:28S 24°08' W 046°13'0 0.0
2017-Dec-27 01:58S 24°08' W 046°13'0 0.0
2017-Dec-27 01:28S 24°08' W 046°13'0 0.0
2017-Dec-27 00:58S 24°08' W 046°13'0 0.0
2017-Dec-27 00:28S 24°08' W 046°13'0 0.0
2017-Dec-26 23:58S 24°08' W 046°13'0 0.0
2017-Dec-26 23:28S 24°08' W 046°13'0 0.0
2017-Dec-26 22:58S 24°08' W 046°13'0 0.0
2017-Dec-26 22:28S 24°08' W 046°13'0 0.0
2017-Dec-26 21:58S 24°08' W 046°13'0 0.0
2017-Dec-26 21:28S 24°08' W 046°13'0 0.0
2017-Dec-26 20:52S 24°08' W 046°13'0 0.0
2017-Dec-26 20:28S 24°08' W 046°13'0 0.0
2017-Dec-26 19:58S 24°08' W 046°13'0 0.0
2017-Dec-26 19:28S 24°08' W 046°13'0 0.0
2017-Dec-26 18:58S 24°08' W 046°13'0 0.0
2017-Dec-26 18:28S 24°08' W 046°13'0 0.0
2017-Dec-26 17:58S 24°08' W 046°13'0 0.0
2017-Dec-26 17:28S 24°08' W 046°13'0 0.0
2017-Dec-26 16:58S 24°08' W 046°13'0 0.0
2017-Dec-26 16:28S 24°08' W 046°13'0 0.0
2017-Dec-26 15:58S 24°08' W 046°13'0 0.0
2017-Dec-26 15:28S 24°08' W 046°13'0 0.0
2017-Dec-26 14:58S 24°08' W 046°13'0 0.0
2017-Dec-26 14:28S 24°08' W 046°13'0 0.0
2017-Dec-26 13:58S 24°08' W 046°13'0 0.0
2017-Dec-26 13:28S 24°08' W 046°13'0 0.1
2017-Dec-26 12:58S 24°08' W 046°13'0 0.0
2017-Dec-26 12:28S 24°08' W 046°13'0 0.0
2017-Dec-26 11:58S 24°08' W 046°13'0 0.0
2017-Dec-26 11:28S 24°08' W 046°13'0 0.0
2017-Dec-26 10:55S 24°08' W 046°13'0 0.0
2017-Dec-26 10:28S 24°08' W 046°13'0 0.0
2017-Dec-26 09:58S 24°08' W 046°13'0 0.0
2017-Dec-26 09:28S 24°08' W 046°13'0 0.0
2017-Dec-26 08:58S 24°08' W 046°13'0 0.0
2017-Dec-26 08:28S 24°08' W 046°13'0 0.0
2017-Dec-26 07:58S 24°08' W 046°13'0 0.0
2017-Dec-26 07:28S 24°08' W 046°13'0 0.0
2017-Dec-26 06:58S 24°08' W 046°13'0 0.0
2017-Dec-26 06:28S 24°08' W 046°13'0 0.0
2017-Dec-26 05:58S 24°08' W 046°13'0 0.0
2017-Dec-26 05:28S 24°08' W 046°13'0 0.0
2017-Dec-26 04:58S 24°08' W 046°13'0 0.0
2017-Dec-26 04:28S 24°08' W 046°13'0 0.0
2017-Dec-26 03:58S 24°08' W 046°13'0 0.0
2017-Dec-26 03:28S 24°08' W 046°13'0 0.0
2017-Dec-26 02:58S 24°08' W 046°13'0 0.0
2017-Dec-26 02:28S 24°08' W 046°13'0 0.1
2017-Dec-26 01:55S 24°08' W 046°13'0 0.0
2017-Dec-26 01:28S 24°08' W 046°13'0 0.0
2017-Dec-26 00:58S 24°08' W 046°13'0 0.0
2017-Dec-26 00:28S 24°08' W 046°13'0 0.1
2017-Dec-25 23:58S 24°08' W 046°13'0 0.0
2017-Dec-25 23:28S 24°08' W 046°13'0 0.0
2017-Dec-25 22:58S 24°08' W 046°13'0 0.0
2017-Dec-25 22:28S 24°08' W 046°13'0 0.0
2017-Dec-25 21:58S 24°08' W 046°13'0 0.0
2017-Dec-25 21:28S 24°08' W 046°13'0 0.0
2017-Dec-25 20:55S 24°08' W 046°13'0 0.0
2017-Dec-25 20:28S 24°08' W 046°13'0 0.0
2017-Dec-25 19:52S 24°08' W 046°13'0 0.1
2017-Dec-25 19:28S 24°08' W 046°13'0 0.0
2017-Dec-25 18:58S 24°08' W 046°13'0 0.0
2017-Dec-25 18:28S 24°08' W 046°13'0 0.0
2017-Dec-25 17:43S 24°08' W 046°13'0 0.0
2017-Dec-25 17:28S 24°08' W 046°13'0 0.0
2017-Dec-25 16:58S 24°08' W 046°13'0 0.0
2017-Dec-25 16:28S 24°08' W 046°13'0 0.0
2017-Dec-25 15:58S 24°08' W 046°13'0 0.0
2017-Dec-25 15:28S 24°08' W 046°13'0 0.0
2017-Dec-25 14:58S 24°08' W 046°13'0 0.0
2017-Dec-25 14:28S 24°08' W 046°13'0 0.0
2017-Dec-25 13:58S 24°08' W 046°13'0 0.0
2017-Dec-25 13:28S 24°08' W 046°13'0 0.0
2017-Dec-25 12:55S 24°08' W 046°13'0 0.0
2017-Dec-25 12:25S 24°08' W 046°13'0 0.0
2017-Dec-25 11:58S 24°08' W 046°13'0 0.0
2017-Dec-25 11:28S 24°08' W 046°13'0 0.0
2017-Dec-25 10:58S 24°08' W 046°13'0 0.0
2017-Dec-25 10:28S 24°08' W 046°13'0 0.0
2017-Dec-25 09:55S 24°08' W 046°13'0 0.0
2017-Dec-25 09:28S 24°08' W 046°13'0 0.0
2017-Dec-25 08:58S 24°08' W 046°13'0 0.0
2017-Dec-25 08:22S 24°08' W 046°13'0 0.0
2017-Dec-25 07:58S 24°08' W 046°13'0 0.1
2017-Dec-25 07:28S 24°08' W 046°13'0 0.1
2017-Dec-25 06:58S 24°08' W 046°13'0 0.0
2017-Dec-25 06:28S 24°08' W 046°13'0 0.0
2017-Dec-25 05:58S 24°08' W 046°13'0 0.2
2017-Dec-25 05:28S 24°08' W 046°13'0 0.2
2017-Dec-25 04:43S 24°08' W 046°13'0 0.0
2017-Dec-25 04:16S 24°08' W 046°13'0 0.1
2017-Dec-25 03:58S 24°08' W 046°13'0 0.1
2017-Dec-25 03:22S 24°08' W 046°13'0 0.0
2017-Dec-25 02:58S 24°08' W 046°13'0 0.1
2017-Dec-25 02:28S 24°08' W 046°13'0 0.0
2017-Dec-25 01:40S 24°08' W 046°13'0 0.0
2017-Dec-25 00:31S 24°08' W 046°13'0 0.0
2017-Dec-25 00:28S 24°08' W 046°13'0 0.0
2017-Dec-24 23:58S 24°08' W 046°13'0 0.0
2017-Dec-24 23:22S 24°08' W 046°13'0 0.0
2017-Dec-24 22:58S 24°08' W 046°13'0 0.0
2017-Dec-24 22:28S 24°08' W 046°13'0 0.0
2017-Dec-24 21:58S 24°08' W 046°13'0 0.0
2017-Dec-24 21:22S 24°08' W 046°13'0 0.1
2017-Dec-24 20:58S 24°08' W 046°13'0 0.1
2017-Dec-24 20:28S 24°08' W 046°13'0 0.0
2017-Dec-24 19:58S 24°08' W 046°13'0 0.0
2017-Dec-24 19:28S 24°08' W 046°13'0 0.0
2017-Dec-24 18:58S 24°08' W 046°13'0 0.0
2017-Dec-24 18:25S 24°08' W 046°13'0 0.1
2017-Dec-24 17:58S 24°08' W 046°13'0 0.0
2017-Dec-24 17:25S 24°08' W 046°13'0 0.1
2017-Dec-24 16:55S 24°08' W 046°13'0 0.0
2017-Dec-24 16:28S 24°08' W 046°13'0 0.0
2017-Dec-24 15:43S 24°08' W 046°13'0 0.1
2017-Dec-24 15:28S 24°08' W 046°13'0 0.0
2017-Dec-24 14:52S 24°08' W 046°13'0 0.0
2017-Dec-24 14:25S 24°08' W 046°13'0 0.0
2017-Dec-24 13:40S 24°08' W 046°13'0 0.1
2017-Dec-24 13:25S 24°08' W 046°13'0 0.0
2017-Dec-24 12:58S 24°08' W 046°13'0 0.0
2017-Dec-24 12:22S 24°08' W 046°13'0 0.0
2017-Dec-24 11:58S 24°08' W 046°13'0 0.0
2017-Dec-24 11:28S 24°08' W 046°13'0 0.0
2017-Dec-24 10:55S 24°08' W 046°13'0 0.1
2017-Dec-24 10:28S 24°08' W 046°13'0 0.0
2017-Dec-24 09:58S 24°08' W 046°13'0 0.0
2017-Dec-24 06:55S 24°08' W 046°13'0 0.0
2017-Dec-24 06:28S 24°08' W 046°13'0 0.0
2017-Dec-24 05:04S 24°08' W 046°13'0 0.0
2017-Dec-24 04:46S 24°08' W 046°13'0 0.0
2017-Dec-24 04:28S 24°08' W 046°13'0 0.0
2017-Dec-24 03:52S 24°08' W 046°13'0 0.0
2017-Dec-24 03:28S 24°08' W 046°13'0 0.0
2017-Dec-24 02:46S 24°08' W 046°13'0 0.0
2017-Dec-24 02:22S 24°08' W 046°13'0 0.1
2017-Dec-24 01:58S 24°08' W 046°13'0 0.0
2017-Dec-24 01:28S 24°08' W 046°13'0 0.0
2017-Dec-24 00:58S 24°08' W 046°13'0 0.0
2017-Dec-24 00:28S 24°08' W 046°13'0 0.0
2017-Dec-23 23:58S 24°08' W 046°13'0 0.1
2017-Dec-23 23:28S 24°08' W 046°13'0 0.1
2017-Dec-23 22:58S 24°08' W 046°13'0 0.0
2017-Dec-23 22:28S 24°08' W 046°13'0 0.1
2017-Dec-23 21:58S 24°08' W 046°13'0 0.0
2017-Dec-23 21:25S 24°08' W 046°13'0 0.0
2017-Dec-23 20:58S 24°08' W 046°13'0 0.0
2017-Dec-23 20:28S 24°08' W 046°13'0 0.0
2017-Dec-23 19:58S 24°08' W 046°13'0 0.0
2017-Dec-23 19:28S 24°08' W 046°13'0 0.0
2017-Dec-23 18:58S 24°08' W 046°13'0 0.0
2017-Dec-23 18:28S 24°08' W 046°13'0 0.0
2017-Dec-23 17:58S 24°08' W 046°13'0 0.0
2017-Dec-23 17:28S 24°08' W 046°13'0 0.0
2017-Dec-23 16:58S 24°08' W 046°13'0 0.0
2017-Dec-23 15:16S 24°08' W 046°13'0 0.0
2017-Dec-23 14:55S 24°08' W 046°13'0 0.0
2017-Dec-23 14:16S 24°08' W 046°13'0 0.0
2017-Dec-23 13:58S 24°08' W 046°13'0 0.0
2017-Dec-23 13:16S 24°08' W 046°13'0 0.0
2017-Dec-23 12:52S 24°08' W 046°13'0 0.0
2017-Dec-23 12:28S 24°08' W 046°13'0 0.0
2017-Dec-23 11:55S 24°08' W 046°13'0 0.0
2017-Dec-23 11:22S 24°08' W 046°13'0 0.0
2017-Dec-23 10:58S 24°08' W 046°13'0 0.0
2017-Dec-23 10:28S 24°08' W 046°13'0 0.0
2017-Dec-23 09:58S 24°08' W 046°13'0 0.0
2017-Dec-23 09:22S 24°08' W 046°13'0 0.0
2017-Dec-23 08:46S 24°08' W 046°13'0 0.0
2017-Dec-23 08:16S 24°08' W 046°13'0 0.0
2017-Dec-23 07:10S 24°08' W 046°13'0 0.0
2017-Dec-23 06:58S 24°08' W 046°13'0 0.0
2017-Dec-23 06:22S 24°08' W 046°13'0 0.0
2017-Dec-23 05:58S 24°08' W 046°13'0 0.0
2017-Dec-23 05:22S 24°08' W 046°13'0 0.0
2017-Dec-23 04:58S 24°08' W 046°13'0 0.0
2017-Dec-23 04:22S 24°08' W 046°13'0 0.0
2017-Dec-23 03:58S 24°08' W 046°13'0 0.0
2017-Dec-23 03:22S 24°08' W 046°13'0 0.0
2017-Dec-23 02:52S 24°08' W 046°13'0 0.0
2017-Dec-23 02:28S 24°08' W 046°13'0 0.0
2017-Dec-23 01:58S 24°08' W 046°13'0 0.0
2017-Dec-23 01:28S 24°08' W 046°13'0 0.0
2017-Dec-23 00:58S 24°08' W 046°13'0 0.0
2017-Dec-23 00:25S 24°08' W 046°13'0 0.0
2017-Dec-22 23:58S 24°08' W 046°13'0 0.0
2017-Dec-22 23:25S 24°08' W 046°13'0 0.0
2017-Dec-22 22:58S 24°08' W 046°13'0 0.0
2017-Dec-22 22:19S 24°08' W 046°13'0 0.0
2017-Dec-22 21:58S 24°08' W 046°13'0 0.0
2017-Dec-22 20:52S 24°08' W 046°13'0 0.0
2017-Dec-22 20:22S 24°08' W 046°13'0 0.0
2017-Dec-22 19:34S 24°08' W 046°13'0 0.0
2017-Dec-22 19:22S 24°08' W 046°13'0 0.0
2017-Dec-22 18:58S 24°08' W 046°13'0 0.0
2017-Dec-22 18:28S 24°08' W 046°13'0 0.0
2017-Dec-22 17:28S 24°08' W 046°13'0 0.0
2017-Dec-22 16:58S 24°08' W 046°13'0 0.0
2017-Dec-22 16:25S 24°08' W 046°13'0 0.0
2017-Dec-22 15:58S 24°08' W 046°13'0 0.0
2017-Dec-22 15:28S 24°08' W 046°13'0 0.0
2017-Dec-22 14:46S 24°08' W 046°13'0 0.0
2017-Dec-22 13:16S 24°08' W 046°13'0 0.0
2017-Dec-22 12:46S 24°08' W 046°13'0 0.0
2017-Dec-22 11:46S 24°08' W 046°13'0 0.0
2017-Dec-22 04:10S 24°08' W 046°13'0 0.0
2017-Dec-22 03:58S 24°08' W 046°13'0 0.0
2017-Dec-22 03:10S 24°08' W 046°13'0 0.0
2017-Dec-22 02:58S 24°08' W 046°13'  

Dump ship's entire track history